Terminal Aerodrome Forecast
Issued by NWS

Home | Current Version | Previous Version | Graphics & Text | Print | Product List | Glossary On
Versions: 1 2 3 4 5 6 7 8 9 10 11 12 13 14 15 16 17 18 19
000
FTUS43 KABR 310500
TAFMBG
TAF
KMBG 310540Z 3106/0106 14015KT P6SM BKN100
      TEMPO 3106/3107 P6SM -SHRA
     FM311100 32010KT P6SM BKN100
     FM311500 32009KT P6SM BKN050
     FM010100 34005KT P6SM BKN250=

USA.gov is the U.S. government's official web portal to all federal, state and local government web resources and services.